Time;durP1;ratioP1;P1;durP2;ratioP2;P2;SDS_P1;SDS_P2;PMS_P1;PMS_P2;Temp;Humidity;BMP_temperature;BMP_pressure;BME280_temperature;BME280_humidity;BME280_pressure;Samples;Min_cycle;Max_cycle;Signal;HPM_P1;HPM_P2
2021/01/25 00:02:14;;;;;;;11.40;6.03;;;1.60;99.90;;;;;;5056893;28;20203;-66
2021/01/25 00:04:40;;;;;;;7.90;7.10;;;1.60;99.90;;;;;;5058718;28;20180;-66
2021/01/25 00:07:06;;;;;;;7.20;6.07;;;1.60;99.90;;;;;;5055758;28;20932;-66
2021/01/25 00:09:31;;;;;;;9.50;7.13;;;1.60;99.90;;;;;;5062060;28;20742;-66
2021/01/25 00:11:57;;;;;;;11.83;5.87;;;1.60;99.90;;;;;;5053622;28;20423;-66
2021/01/25 00:14:23;;;;;;;10.00;6.77;;;1.60;99.90;;;;;;5057935;28;20210;-65
2021/01/25 00:16:48;;;;;;;11.13;7.37;;;1.50;99.90;;;;;;5060925;28;20267;-66
2021/01/25 00:19:14;;;;;;;7.67;6.70;;;1.50;99.90;;;;;;5056634;28;20629;-66
2021/01/25 00:21:39;;;;;;;6.70;5.67;;;1.60;99.90;;;;;;5054496;28;20204;-65
2021/01/25 00:24:05;;;;;;;7.70;6.90;;;1.50;99.90;;;;;;5054391;28;20259;-65
2021/01/25 00:26:31;;;;;;;7.47;6.77;;;1.50;99.90;;;;;;5051969;28;20191;-65
2021/01/25 00:28:56;;;;;;;7.20;6.50;;;1.50;99.90;;;;;;5063005;28;20418;-65
2021/01/25 00:31:22;;;;;;;6.93;5.87;;;1.50;99.90;;;;;;5057092;28;20268;-66
2021/01/25 00:33:47;;;;;;;11.57;5.97;;;1.50;99.90;;;;;;5052971;28;20614;-66
2021/01/25 00:36:13;;;;;;;8.20;6.07;;;1.50;99.90;;;;;;5060422;28;20314;-65
2021/01/25 00:38:38;;;;;;;10.97;6.17;;;1.50;99.90;;;;;;5055642;28;20214;-65
2021/01/25 00:41:04;;;;;;;7.70;6.90;;;1.50;99.90;;;;;;5052627;28;20321;-65
2021/01/25 00:43:29;;;;;;;8.57;6.63;;;1.50;99.90;;;;;;5052008;28;20184;-66
2021/01/25 00:45:55;;;;;;;8.67;6.10;;;1.50;99.90;;;;;;5056663;28;20184;-65
2021/01/25 00:48:20;;;;;;;6.73;6.13;;;1.50;99.90;;;;;;5058770;28;20191;-65
2021/01/25 00:50:46;;;;;;;8.37;7.13;;;1.50;99.90;;;;;;5056494;28;20265;-65
2021/01/25 00:53:11;;;;;;;7.37;6.70;;;1.50;99.90;;;;;;5055456;28;20210;-65
2021/01/25 00:55:37;;;;;;;7.83;6.53;;;1.50;99.90;;;;;;5054058;28;20679;-66
2021/01/25 00:58:02;;;;;;;8.90;6.30;;;1.50;99.90;;;;;;5067397;28;20188;-65
2021/01/25 01:00:28;;;;;;;9.23;7.70;;;1.50;99.90;;;;;;5057596;28;20255;-65
2021/01/25 01:02:53;;;;;;;7.10;6.00;;;1.50;99.90;;;;;;5053213;28;20208;-66
2021/01/25 01:05:20;;;;;;;8.93;6.97;;;1.50;99.90;;;;;;5057140;28;20176;-65
2021/01/25 01:07:45;;;;;;;9.53;6.70;;;1.50;99.90;;;;;;5058023;28;20184;-66
2021/01/25 01:10:11;;;;;;;9.13;8.23;;;1.50;99.90;;;;;;5057648;28;20488;-66
2021/01/25 01:12:36;;;;;;;7.43;5.77;;;1.50;99.90;;;;;;5068410;28;20637;-66
2021/01/25 01:15:10;;;;;;;6.87;6.07;;;1.50;99.90;;;;;;5053663;28;20660;-65
2021/01/25 01:17:36;;;;;;;8.53;6.00;;;1.50;99.90;;;;;;5055196;28;20191;-65
2021/01/25 01:20:04;;;;;;;6.67;5.97;;;1.50;99.90;;;;;;5053771;28;21086;-65
2021/01/25 01:22:29;;;;;;;8.27;7.40;;;1.50;99.90;;;;;;5053489;28;20192;-65
2021/01/25 01:24:55;;;;;;;6.60;6.00;;;1.50;99.90;;;;;;5052899;28;20538;-65
2021/01/25 01:27:20;;;;;;;8.70;6.30;;;1.50;99.90;;;;;;5061222;28;20168;-65
2021/01/25 01:29:46;;;;;;;9.17;6.00;;;1.50;99.90;;;;;;5055361;28;20181;-65
2021/01/25 01:32:11;;;;;;;7.67;6.90;;;1.50;99.90;;;;;;5052020;28;20704;-65
2021/01/25 01:34:36;;;;;;;8.50;6.63;;;1.50;99.90;;;;;;5065095;28;20229;-65
2021/01/25 01:37:02;;;;;;;6.57;5.53;;;1.50;99.90;;;;;;5055154;28;20188;-65
2021/01/25 01:39:27;;;;;;;8.77;5.70;;;1.50;99.90;;;;;;5057019;28;20641;-65
2021/01/25 01:41:53;;;;;;;8.10;5.63;;;1.50;99.90;;;;;;5056238;28;20215;-65
2021/01/25 01:44:18;;;;;;;7.30;5.90;;;1.50;99.90;;;;;;5061647;28;20551;-65
2021/01/25 01:46:45;;;;;;;7.10;6.30;;;1.50;99.90;;;;;;5057051;28;20306;-66
2021/01/25 01:49:11;;;;;;;7.20;6.50;;;1.50;99.90;;;;;;5053304;28;20198;-66
2021/01/25 01:51:38;;;;;;;5.83;5.33;;;1.50;99.90;;;;;;5056730;28;20522;-65
2021/01/25 01:54:05;;;;;;;11.47;6.43;;;1.60;99.90;;;;;;5055911;28;20448;-65
2021/01/25 01:56:31;;;;;;;8.63;6.37;;;1.50;99.90;;;;;;5057094;28;20437;-65
2021/01/25 01:58:57;;;;;;;9.53;6.20;;;1.60;99.90;;;;;;5052541;28;20712;-65
2021/01/25 02:01:23;;;;;;;13.10;6.57;;;1.50;99.90;;;;;;5054158;28;20529;-65
2021/01/25 02:03:49;;;;;;;6.13;5.50;;;1.50;99.90;;;;;;5052735;28;20430;-65
2021/01/25 02:06:18;;;;;;;6.93;6.17;;;1.50;99.90;;;;;;5055189;28;20184;-65
2021/01/25 02:08:45;;;;;;;6.70;5.80;;;1.50;99.90;;;;;;5050743;28;20200;-66
2021/01/25 02:11:11;;;;;;;7.00;6.30;;;1.50;99.90;;;;;;5056293;28;20462;-66
2021/01/25 02:13:37;;;;;;;9.60;6.90;;;1.50;99.90;;;;;;5055100;28;20456;-66
2021/01/25 02:16:04;;;;;;;6.03;5.43;;;1.50;99.90;;;;;;5059484;28;20441;-65
2021/01/25 02:18:31;;;;;;;5.43;4.70;;;1.50;99.90;;;;;;5059432;28;20896;-65
2021/01/25 02:20:57;;;;;;;6.87;6.17;;;1.50;99.90;;;;;;5054930;28;20466;-65
2021/01/25 02:23:23;;;;;;;7.90;5.20;;;1.50;99.90;;;;;;5059458;28;20483;-65
2021/01/25 02:25:53;;;;;;;5.70;5.20;;;1.50;99.90;;;;;;5054616;28;20884;-65
2021/01/25 02:28:19;;;;;;;8.03;5.57;;;1.50;99.90;;;;;;5066694;28;20180;-65
2021/01/25 02:30:46;;;;;;;6.13;4.53;;;1.50;99.90;;;;;;5060200;28;20465;-65
2021/01/25 02:33:13;;;;;;;5.37;4.57;;;1.60;99.90;;;;;;5058192;28;20216;-65
2021/01/25 02:35:39;;;;;;;5.83;5.30;;;1.60;99.90;;;;;;5057925;28;20430;-65
2021/01/25 02:38:08;;;;;;;5.27;4.57;;;1.60;99.90;;;;;;5057987;28;20421;-65
2021/01/25 02:40:34;;;;;;;5.03;4.53;;;1.70;99.90;;;;;;5060111;28;20563;-65
2021/01/25 02:43:00;;;;;;;5.30;4.80;;;1.70;99.90;;;;;;5059931;28;20502;-66
2021/01/25 02:45:26;;;;;;;6.10;5.33;;;1.70;99.90;;;;;;5054651;28;20883;-65
2021/01/25 02:47:54;;;;;;;5.83;4.73;;;1.70;99.90;;;;;;5057002;28;20568;-65
2021/01/25 02:50:20;;;;;;;7.77;4.83;;;1.70;99.90;;;;;;5055845;28;20184;-65
2021/01/25 02:52:45;;;;;;;6.83;4.80;;;1.80;99.90;;;;;;5057976;28;20431;-65
2021/01/25 02:55:11;;;;;;;5.10;4.70;;;1.80;99.90;;;;;;5062485;28;20184;-65
2021/01/25 02:57:38;;;;;;;5.33;4.20;;;1.70;99.90;;;;;;5055876;28;20176;-66
2021/01/25 03:00:07;;;;;;;6.73;4.67;;;1.80;99.90;;;;;;5056242;28;20433;-65
2021/01/25 03:02:32;;;;;;;7.00;5.33;;;1.80;99.90;;;;;;5055322;28;20461;-65
2021/01/25 03:05:00;;;;;;;5.70;4.50;;;1.90;99.90;;;;;;5059611;28;20809;-66
2021/01/25 03:07:26;;;;;;;5.23;4.70;;;1.90;99.90;;;;;;5060505;28;20505;-66
2021/01/25 03:09:52;;;;;;;5.27;4.50;;;2.00;99.90;;;;;;5060818;28;20943;-66
2021/01/25 03:12:18;;;;;;;5.47;4.63;;;2.00;99.90;;;;;;5063292;28;20437;-65
2021/01/25 03:14:44;;;;;;;6.43;5.23;;;2.00;99.90;;;;;;5073530;28;20223;-66
2021/01/25 03:17:10;;;;;;;6.80;4.23;;;2.00;99.90;;;;;;5058933;28;20873;-65
2021/01/25 03:19:35;;;;;;;4.40;4.00;;;2.00;99.90;;;;;;5065448;28;20490;-65
2021/01/25 03:22:01;;;;;;;5.43;4.10;;;2.00;99.90;;;;;;5055679;28;20219;-65
2021/01/25 03:24:26;;;;;;;4.83;4.43;;;2.00;99.90;;;;;;5063583;28;20519;-66
2021/01/25 03:26:52;;;;;;;4.50;3.40;;;2.00;99.90;;;;;;5061645;28;20319;-65
2021/01/25 03:29:17;;;;;;;4.10;3.70;;;2.00;99.90;;;;;;5056027;28;20204;-65
2021/01/25 03:31:43;;;;;;;3.90;3.60;;;2.10;99.90;;;;;;5058835;28;20215;-66
2021/01/25 03:34:08;;;;;;;7.20;5.80;;;2.10;99.90;;;;;;5059709;28;20247;-66
2021/01/25 03:36:35;;;;;;;5.37;4.27;;;2.10;99.90;;;;;;5053790;28;20188;-66
2021/01/25 03:39:00;;;;;;;5.67;4.47;;;2.00;99.90;;;;;;5075152;28;20290;-66
2021/01/25 03:41:27;;;;;;;4.67;4.00;;;2.00;99.90;;;;;;5059277;28;20562;-66
2021/01/25 03:43:52;;;;;;;5.57;4.77;;;2.00;99.90;;;;;;5061762;28;20183;-66
2021/01/25 03:46:18;;;;;;;5.10;4.70;;;2.10;99.90;;;;;;5060820;28;20422;-66
2021/01/25 03:48:44;;;;;;;5.17;4.67;;;2.10;99.90;;;;;;5055537;28;20188;-66
2021/01/25 03:51:10;;;;;;;6.93;4.53;;;2.00;99.90;;;;;;5058876;28;20433;-66
2021/01/25 03:53:35;;;;;;;5.03;4.63;;;2.00;99.90;;;;;;5057031;28;20215;-66
2021/01/25 03:56:01;;;;;;;5.00;4.50;;;2.00;99.90;;;;;;5056192;28;20191;-66
2021/01/25 03:58:26;;;;;;;5.23;4.40;;;2.00;99.90;;;;;;5055782;28;20182;-66
2021/01/25 04:00:52;;;;;;;6.33;5.70;;;2.00;99.90;;;;;;5055478;28;20181;-65
2021/01/25 04:03:18;;;;;;;5.73;4.63;;;2.00;99.90;;;;;;5055071;28;20176;-65
2021/01/25 04:05:43;;;;;;;6.73;5.13;;;1.90;99.90;;;;;;5058517;28;20472;-66
2021/01/25 04:08:09;;;;;;;5.73;4.90;;;1.90;99.90;;;;;;5054874;28;20192;-66
2021/01/25 04:10:34;;;;;;;7.20;5.80;;;1.90;99.90;;;;;;5060959;28;20583;-66
2021/01/25 04:13:00;;;;;;;6.20;5.70;;;1.90;99.90;;;;;;5059708;28;20645;-66
2021/01/25 04:15:26;;;;;;;6.40;5.80;;;1.90;99.90;;;;;;5061404;28;20215;-65
2021/01/25 04:17:52;;;;;;;6.43;5.53;;;1.90;99.90;;;;;;5076936;28;20461;-65
2021/01/25 04:20:17;;;;;;;6.40;5.80;;;1.90;99.90;;;;;;5054781;28;20180;-65
2021/01/25 04:22:43;;;;;;;6.67;5.23;;;1.90;99.90;;;;;;5053226;28;20208;-66
2021/01/25 04:25:09;;;;;;;5.93;5.20;;;1.90;99.90;;;;;;5053391;28;20267;-65
2021/01/25 04:27:35;;;;;;;6.37;5.07;;;1.90;99.90;;;;;;5053653;28;20190;-66
2021/01/25 04:30:01;;;;;;;6.73;6.07;;;1.90;99.90;;;;;;5053360;28;20513;-65
2021/01/25 04:32:26;;;;;;;6.03;5.50;;;1.90;99.90;;;;;;5055232;28;20462;-65
2021/01/25 04:34:54;;;;;;;5.60;4.70;;;1.90;99.90;;;;;;5054121;28;20450;-66
2021/01/25 04:37:20;;;;;;;6.07;5.47;;;1.90;99.90;;;;;;5051696;28;20184;-66
2021/01/25 04:39:46;;;;;;;5.80;5.00;;;1.90;99.90;;;;;;5055393;28;20455;-65
2021/01/25 04:42:12;;;;;;;8.87;5.20;;;2.00;99.90;;;;;;5053917;28;20483;-65
2021/01/25 04:44:39;;;;;;;5.90;5.20;;;2.00;99.90;;;;;;5052963;28;20437;-65
2021/01/25 04:47:06;;;;;;;7.17;6.20;;;2.00;99.90;;;;;;5054198;28;20241;-66
2021/01/25 04:49:32;;;;;;;6.73;5.77;;;2.10;99.90;;;;;;5064846;28;20491;-66
2021/01/25 04:51:58;;;;;;;7.23;6.07;;;2.10;99.90;;;;;;5054327;28;20507;-66
2021/01/25 04:54:25;;;;;;;7.10;5.37;;;2.20;99.90;;;;;;5053036;28;20423;-66
2021/01/25 04:56:51;;;;;;;8.30;6.93;;;2.20;99.90;;;;;;5058929;28;20887;-66
2021/01/25 04:59:17;;;;;;;6.70;6.00;;;2.20;99.90;;;;;;5053504;28;20856;-66
2021/01/25 05:01:43;;;;;;;8.70;7.53;;;2.20;99.90;;;;;;5054452;28;20505;-66
2021/01/25 05:04:09;;;;;;;6.93;6.33;;;2.30;99.90;;;;;;5054809;28;20263;-66
2021/01/25 05:06:35;;;;;;;7.87;6.40;;;2.30;99.90;;;;;;5053633;28;21018;-66
2021/01/25 05:09:01;;;;;;;7.43;5.97;;;2.30;99.90;;;;;;5064082;28;20211;-66
2021/01/25 05:11:27;;;;;;;8.20;6.30;;;2.30;99.90;;;;;;5063180;28;20465;-66
2021/01/25 05:14:02;;;;;;;8.53;7.20;;;2.30;99.90;;;;;;5072926;28;20862;-66
2021/01/25 05:16:29;;;;;;;9.80;7.50;;;2.30;99.90;;;;;;5058082;28;20416;-66
2021/01/25 05:18:57;;;;;;;10.60;5.90;;;2.30;99.90;;;;;;5054676;28;20503;-66
2021/01/25 05:21:42;;;;;;;8.80;6.63;;;2.30;99.90;;;;;;5054394;28;20465;-65
2021/01/25 05:24:10;;;;;;;6.83;6.10;;;2.20;99.90;;;;;;5055871;28;20453;-65
2021/01/25 05:26:40;;;;;;;7.73;7.00;;;2.20;99.90;;;;;;5054237;28;20437;-66
2021/01/25 05:29:05;;;;;;;8.80;6.83;;;2.20;99.90;;;;;;5056967;28;20438;-65
2021/01/25 05:31:31;;;;;;;7.47;6.77;;;2.20;99.90;;;;;;5056873;28;20791;-65
2021/01/25 05:33:57;;;;;;;7.73;7.03;;;2.20;99.90;;;;;;5056537;28;20188;-65
2021/01/25 05:36:29;;;;;;;9.10;6.67;;;2.20;99.90;;;;;;5062024;28;20678;-65
2021/01/25 05:38:56;;;;;;;7.80;7.10;;;2.20;99.90;;;;;;5057675;28;20501;-65
2021/01/25 05:41:22;;;;;;;7.93;7.07;;;2.20;99.90;;;;;;5052044;28;21526;-66
2021/01/25 05:43:50;;;;;;;8.40;7.60;;;2.20;99.90;;;;;;5052872;28;20440;-66
2021/01/25 05:46:18;;;;;;;9.60;8.40;;;2.30;99.90;;;;;;5052595;28;20462;-66
2021/01/25 05:48:56;;;;;;;8.90;7.83;;;2.30;99.90;;;;;;5054413;28;20436;-66
2021/01/25 05:51:21;;;;;;;8.43;7.00;;;2.30;99.90;;;;;;5055933;28;20487;-66
2021/01/25 05:53:48;;;;;;;9.43;7.40;;;2.30;99.90;;;;;;5065860;28;20938;-66
2021/01/25 05:56:15;;;;;;;8.00;7.20;;;2.30;99.90;;;;;;5061432;28;20175;-66
2021/01/25 05:58:41;;;;;;;7.80;6.83;;;2.30;99.90;;;;;;5066041;28;20476;-66
2021/01/25 06:01:08;;;;;;;7.67;6.97;;;2.30;99.90;;;;;;5068395;28;20426;-66
2021/01/25 06:03:38;;;;;;;8.40;7.57;;;2.20;99.90;;;;;;5060066;28;20514;-66
2021/01/25 06:06:13;;;;;;;12.20;7.60;;;2.10;99.90;;;;;;5057077;28;20479;-66
2021/01/25 06:08:47;;;;;;;9.10;8.20;;;2.20;99.90;;;;;;5059657;28;20492;-66
2021/01/25 06:11:20;;;;;;;8.77;7.97;;;2.20;99.90;;;;;;5057110;28;20549;-65
2021/01/25 06:14:00;;;;;;;8.70;7.80;;;2.20;99.90;;;;;;5057470;28;20441;-65
2021/01/25 06:16:29;;;;;;;10.63;7.80;;;2.20;99.90;;;;;;5061838;28;20492;-65
2021/01/25 06:19:09;;;;;;;9.07;8.10;;;2.20;99.90;;;;;;5059434;28;20448;-65
2021/01/25 06:21:39;;;;;;;10.50;8.53;;;2.30;99.90;;;;;;5057312;28;20853;-65
2021/01/25 06:24:07;;;;;;;9.07;8.27;;;2.30;99.90;;;;;;5056253;28;20985;-65
2021/01/25 06:26:34;;;;;;;8.40;7.60;;;2.30;99.90;;;;;;5057700;28;20838;-65
2021/01/25 06:29:01;;;;;;;10.70;9.60;;;2.30;99.90;;;;;;5061056;28;20434;-66
2021/01/25 06:31:27;;;;;;;9.70;8.63;;;2.30;99.90;;;;;;5060492;28;20512;-65
2021/01/25 06:33:53;;;;;;;9.70;8.70;;;2.30;99.90;;;;;;5056983;28;20802;-65
2021/01/25 06:36:19;;;;;;;9.30;8.40;;;2.30;99.90;;;;;;5053730;28;20435;-65
2021/01/25 06:38:48;;;;;;;9.97;8.90;;;2.30;99.90;;;;;;5062841;28;20204;-65
2021/01/25 06:41:15;;;;;;;10.43;9.43;;;2.30;99.90;;;;;;5063759;28;20486;-66
2021/01/25 06:43:44;;;;;;;11.97;10.43;;;2.30;99.90;;;;;;5063993;28;20895;-66
2021/01/25 06:46:09;;;;;;;10.10;8.60;;;2.30;99.90;;;;;;5069319;28;20433;-66
2021/01/25 06:48:36;;;;;;;11.93;10.70;;;2.30;99.90;;;;;;5060049;28;20709;-65
2021/01/25 06:51:04;;;;;;;10.90;9.37;;;2.30;99.90;;;;;;5065231;28;20176;-65
2021/01/25 06:53:31;;;;;;;12.17;10.47;;;2.30;99.90;;;;;;5056885;28;20460;-65
2021/01/25 06:56:00;;;;;;;10.77;9.67;;;2.40;99.90;;;;;;5054910;28;21006;-66
2021/01/25 06:58:30;;;;;;;11.33;10.13;;;2.40;99.90;;;;;;5055172;28;20433;-65
2021/01/25 07:00:56;;;;;;;13.07;10.50;;;2.40;99.90;;;;;;5064589;28;20434;-65
2021/01/25 07:03:22;;;;;;;12.10;10.50;;;2.40;99.90;;;;;;5067472;28;20426;-65
2021/01/25 07:05:51;;;;;;;14.20;11.87;;;2.40;99.90;;;;;;5061622;28;20422;-66
2021/01/25 07:08:25;;;;;;;11.93;10.73;;;2.40;99.90;;;;;;5058636;28;20216;-65
2021/01/25 07:10:55;;;;;;;12.30;10.73;;;2.40;99.90;;;;;;5061721;28;20918;-66
2021/01/25 07:13:22;;;;;;;11.77;10.53;;;2.30;99.90;;;;;;5056587;28;20457;-66
2021/01/25 07:15:48;;;;;;;16.17;11.57;;;2.30;99.90;;;;;;5066510;28;20422;-65
2021/01/25 07:18:14;;;;;;;12.67;11.33;;;2.30;99.90;;;;;;5062530;28;20422;-66
2021/01/25 07:20:40;;;;;;;13.80;10.83;;;2.30;99.90;;;;;;5058168;28;20479;-65
2021/01/25 07:23:07;;;;;;;13.77;11.60;;;2.30;99.90;;;;;;5062716;28;20265;-65
2021/01/25 07:25:33;;;;;;;14.30;12.73;;;2.30;99.90;;;;;;5057776;28;20431;-66
2021/01/25 07:28:05;;;;;;;14.27;12.07;;;2.30;99.90;;;;;;5056516;28;20785;-66
2021/01/25 07:30:33;;;;;;;17.43;12.13;;;2.30;99.90;;;;;;5057811;28;20204;-66
2021/01/25 07:33:03;;;;;;;12.43;11.17;;;2.30;99.90;;;;;;5058726;28;20470;-66
2021/01/25 07:35:29;;;;;;;12.57;11.27;;;2.30;99.90;;;;;;5055562;28;20559;-65
2021/01/25 07:37:55;;;;;;;15.27;12.07;;;2.30;99.90;;;;;;5056419;28;20476;-66
2021/01/25 07:40:24;;;;;;;12.17;11.07;;;2.30;99.90;;;;;;5063079;28;20565;-66
2021/01/25 07:42:52;;;;;;;12.00;10.47;;;2.20;99.90;;;;;;5055853;28;20191;-65
2021/01/25 07:45:17;;;;;;;12.20;10.90;;;2.20;99.90;;;;;;5055439;28;20434;-65
2021/01/25 07:47:46;;;;;;;13.97;12.63;;;2.20;99.90;;;;;;5072564;28;20493;-65
2021/01/25 07:50:13;;;;;;;18.03;13.83;;;2.20;99.90;;;;;;5055095;28;20231;-65
2021/01/25 07:52:39;;;;;;;17.60;12.03;;;2.20;99.90;;;;;;5057676;28;20446;-66
2021/01/25 07:55:15;;;;;;;16.90;13.70;;;2.20;99.90;;;;;;5054972;28;20523;-66
2021/01/25 07:57:41;;;;;;;13.90;11.80;;;2.20;99.90;;;;;;5055431;28;20244;-66
2021/01/25 08:00:21;;;;;;;19.47;13.80;;;2.20;99.90;;;;;;5054605;28;20968;-65
2021/01/25 08:02:56;;;;;;;16.57;13.80;;;2.20;99.90;;;;;;5053513;28;20503;-65
2021/01/25 08:05:23;;;;;;;16.30;12.73;;;2.10;99.90;;;;;;5061091;28;20841;-65
2021/01/25 08:07:50;;;;;;;13.83;12.53;;;2.20;99.90;;;;;;5058986;28;20438;-65
2021/01/25 08:10:16;;;;;;;15.20;13.60;;;2.10;99.90;;;;;;5055172;28;20418;-66
2021/01/25 08:12:43;;;;;;;18.37;14.73;;;2.10;99.90;;;;;;5053595;28;20434;-66
2021/01/25 08:15:11;;;;;;;16.57;14.00;;;2.20;99.90;;;;;;5053515;28;20438;-65
2021/01/25 08:17:42;;;;;;;17.57;15.17;;;2.20;99.90;;;;;;5055099;28;20429;-66
2021/01/25 08:20:21;;;;;;;15.70;14.20;;;2.20;99.90;;;;;;5053815;28;20458;-65
2021/01/25 08:22:55;;;;;;;17.30;15.03;;;2.30;99.90;;;;;;5061513;28;20449;-65
2021/01/25 08:25:25;;;;;;;18.40;15.07;;;2.30;99.90;;;;;;5060620;28;20413;-65
2021/01/25 08:28:15;;;;;;;17.87;14.37;;;2.40;99.90;;;;;;5057888;28;20789;-65
2021/01/25 08:30:44;;;;;;;16.17;14.37;;;2.40;99.90;;;;;;5065631;28;20419;-66
2021/01/25 08:33:12;;;;;;;16.53;14.57;;;2.50;99.90;;;;;;5060480;28;20472;-66
2021/01/25 08:35:55;;;;;;;17.60;14.93;;;2.60;99.90;;;;;;5055171;28;20537;-66
2021/01/25 08:38:29;;;;;;;20.63;15.90;;;2.60;99.90;;;;;;5056006;28;20830;-65
2021/01/25 08:40:57;;;;;;;24.20;16.23;;;2.70;99.90;;;;;;5058024;28;20913;-65
2021/01/25 08:43:24;;;;;;;18.80;16.40;;;2.80;99.90;;;;;;5053460;28;20462;-66
2021/01/25 08:45:51;;;;;;;19.67;16.90;;;2.80;99.90;;;;;;5052766;28;20922;-66
2021/01/25 08:48:31;;;;;;;18.43;14.50;;;2.80;99.90;;;;;;5062728;28;20425;-65
2021/01/25 08:51:08;;;;;;;17.10;15.10;;;2.80;99.90;;;;;;5055344;28;20430;-66
2021/01/25 08:53:34;;;;;;;21.10;16.03;;;2.80;99.90;;;;;;5054876;28;20949;-66
2021/01/25 08:56:15;;;;;;;17.17;15.37;;;2.80;99.90;;;;;;5057185;28;20443;-66
2021/01/25 08:58:40;;;;;;;18.43;16.20;;;2.80;99.90;;;;;;5055240;28;20172;-66
2021/01/25 09:01:19;;;;;;;18.97;16.37;;;2.80;99.90;;;;;;5051664;28;20437;-66
2021/01/25 09:03:45;;;;;;;17.40;15.60;;;2.80;99.90;;;;;;5051413;28;20537;-65
2021/01/25 09:06:11;;;;;;;16.63;14.80;;;2.80;99.90;;;;;;5054996;28;20419;-65
2021/01/25 09:08:37;;;;;;;17.40;15.70;;;2.80;99.90;;;;;;5054493;28;20180;-66
2021/01/25 09:11:03;;;;;;;22.67;16.30;;;2.90;99.90;;;;;;5051694;28;20443;-65
2021/01/25 09:13:29;;;;;;;18.00;14.90;;;2.90;99.90;;;;;;5053596;28;20450;-66
2021/01/25 09:15:54;;;;;;;17.43;15.70;;;2.90;99.90;;;;;;5059552;28;20457;-65
2021/01/25 09:18:20;;;;;;;19.80;15.73;;;2.90;99.90;;;;;;5056723;28;20606;-65
2021/01/25 09:20:45;;;;;;;17.20;14.03;;;2.90;99.90;;;;;;5052794;28;20177;-65
2021/01/25 09:23:11;;;;;;;20.07;15.33;;;3.00;99.90;;;;;;5059397;28;20208;-65
2021/01/25 09:25:36;;;;;;;16.67;14.90;;;3.00;99.90;;;;;;5061376;28;20255;-66
2021/01/25 09:28:02;;;;;;;20.97;14.90;;;3.10;99.90;;;;;;5054115;28;20259;-66
2021/01/25 09:30:29;;;;;;;17.37;15.57;;;3.10;99.90;;;;;;5058684;28;20702;-66
2021/01/25 09:32:55;;;;;;;19.47;14.43;;;3.20;99.90;;;;;;5069202;28;20211;-66
2021/01/25 09:35:22;;;;;;;16.50;14.70;;;3.30;99.90;;;;;;5051574;28;20438;-66
2021/01/25 09:37:47;;;;;;;19.23;16.93;;;3.30;99.90;;;;;;5057300;28;20430;-66
2021/01/25 09:40:14;;;;;;;20.43;16.63;;;3.30;99.90;;;;;;5054143;28;20442;-66
2021/01/25 09:42:40;;;;;;;15.73;14.13;;;3.40;99.90;;;;;;5059689;28;20208;-66
2021/01/25 09:45:06;;;;;;;17.70;15.80;;;3.50;99.90;;;;;;5054075;28;20423;-66
2021/01/25 09:47:31;;;;;;;18.67;15.03;;;3.50;99.90;;;;;;5057255;28;20438;-65
2021/01/25 09:49:57;;;;;;;17.87;15.97;;;3.60;99.90;;;;;;5053515;28;20919;-66
2021/01/25 09:52:23;;;;;;;18.10;15.63;;;3.60;99.90;;;;;;5054247;28;20191;-65
2021/01/25 09:54:49;;;;;;;16.10;14.07;;;3.70;99.90;;;;;;5060044;28;20433;-66
2021/01/25 09:57:14;;;;;;;18.03;16.13;;;3.80;99.90;;;;;;5051553;28;20430;-65
2021/01/25 09:59:40;;;;;;;17.13;14.90;;;3.80;99.90;;;;;;5057386;28;20192;-66
2021/01/25 10:02:06;;;;;;;22.00;15.13;;;3.90;99.90;;;;;;5053032;28;20206;-65
2021/01/25 10:04:31;;;;;;;16.23;13.37;;;3.90;99.90;;;;;;5052899;28;20195;-66
2021/01/25 10:06:57;;;;;;;16.67;14.90;;;3.90;99.90;;;;;;5053739;28;20652;-65
2021/01/25 10:09:22;;;;;;;18.70;14.40;;;3.90;99.90;;;;;;5064611;28;20188;-66
2021/01/25 10:11:48;;;;;;;17.40;14.40;;;4.00;99.90;;;;;;5054062;28;20184;-65
2021/01/25 10:14:13;;;;;;;18.40;15.30;;;4.00;99.90;;;;;;5053916;28;20184;-66
2021/01/25 10:16:39;;;;;;;19.50;15.77;;;4.10;99.90;;;;;;5055038;28;20191;-66
2021/01/25 10:19:04;;;;;;;18.73;15.63;;;4.10;99.90;;;;;;5055937;28;20650;-66
2021/01/25 10:21:30;;;;;;;17.67;14.03;;;4.10;99.90;;;;;;5051665;28;20695;-66
2021/01/25 10:23:56;;;;;;;18.10;14.87;;;4.00;99.90;;;;;;5057708;28;20169;-65
2021/01/25 10:26:21;;;;;;;16.17;14.47;;;4.00;99.90;;;;;;5054321;28;20184;-65
2021/01/25 10:28:48;;;;;;;17.57;14.63;;;4.00;99.90;;;;;;5052537;28;20308;-66
2021/01/25 10:31:14;;;;;;;21.00;15.20;;;3.90;99.90;;;;;;5059378;28;20249;-65
2021/01/25 10:33:40;;;;;;;17.73;15.93;;;3.80;99.90;;;;;;5055095;28;20466;-66
2021/01/25 10:36:06;;;;;;;18.90;17.00;;;3.80;99.90;;;;;;5057626;28;20933;-66
2021/01/25 10:38:31;;;;;;;18.93;15.20;;;3.70;99.90;;;;;;5057852;28;20641;-66
2021/01/25 10:40:57;;;;;;;17.77;15.87;;;3.60;99.90;;;;;;5056770;28;20427;-66
2021/01/25 10:43:23;;;;;;;17.63;15.67;;;3.60;99.90;;;;;;5056383;28;20203;-65
2021/01/25 10:45:48;;;;;;;20.60;16.90;;;3.60;99.90;;;;;;5053543;28;20519;-66
2021/01/25 10:48:14;;;;;;;18.33;16.47;;;3.60;99.90;;;;;;5055520;28;20173;-66
2021/01/25 10:50:39;;;;;;;20.47;16.50;;;3.60;99.90;;;;;;5056448;28;20212;-66
2021/01/25 10:53:05;;;;;;;18.20;16.30;;;3.50;99.90;;;;;;5061649;28;20558;-66
2021/01/25 10:55:30;;;;;;;16.97;15.10;;;3.60;99.90;;;;;;5059297;28;20192;-66
2021/01/25 10:57:56;;;;;;;18.80;15.63;;;3.50;99.90;;;;;;5061218;28;20181;-66
2021/01/25 11:00:22;;;;;;;13.57;11.60;;;3.50;99.90;;;;;;5054984;28;20541;-66
2021/01/25 11:02:48;;;;;;;17.00;15.20;;;3.50;99.90;;;;;;5061056;28;20250;-65
2021/01/25 11:05:17;;;;;;;19.10;16.67;;;3.50;99.90;;;;;;5055219;28;20427;-65
2021/01/25 11:07:42;;;;;;;19.20;15.70;;;3.60;99.90;;;;;;5053817;28;20773;-66
2021/01/25 11:10:13;;;;;;;19.23;16.53;;;3.60;99.90;;;;;;5059866;28;20463;-66
2021/01/25 11:12:38;;;;;;;18.73;16.63;;;3.70;99.90;;;;;;5056348;28;20187;-66
2021/01/25 11:15:06;;;;;;;22.83;17.37;;;3.70;99.90;;;;;;5062186;28;20931;-65
2021/01/25 11:17:31;;;;;;;18.33;16.23;;;3.80;99.90;;;;;;5064408;28;20187;-64
2021/01/25 11:19:57;;;;;;;19.50;16.70;;;3.80;99.90;;;;;;5056914;28;20437;-64
2021/01/25 11:22:22;;;;;;;18.27;15.00;;;3.80;99.90;;;;;;5054103;28;20346;-64
2021/01/25 11:24:48;;;;;;;18.20;15.07;;;3.80;99.90;;;;;;5059653;28;20211;-65
2021/01/25 11:27:13;;;;;;;19.17;16.47;;;3.80;99.90;;;;;;5055397;28;20195;-65
2021/01/25 11:29:39;;;;;;;18.70;15.83;;;3.70;99.90;;;;;;5054712;28;20667;-65
2021/01/25 11:32:06;;;;;;;20.80;17.00;;;3.60;99.90;;;;;;5064587;28;20241;-65
2021/01/25 11:34:31;;;;;;;18.27;15.13;;;3.60;99.90;;;;;;5055960;28;20275;-65
2021/01/25 11:36:57;;;;;;;17.57;15.50;;;3.50;99.90;;;;;;5054557;28;20521;-64
2021/01/25 11:39:25;;;;;;;20.10;15.20;;;3.50;99.90;;;;;;5056913;28;20489;-65
2021/01/25 11:41:50;;;;;;;17.33;14.40;;;3.50;99.90;;;;;;5064798;28;20200;-65
2021/01/25 11:44:16;;;;;;;19.67;16.77;;;3.60;99.90;;;;;;5056220;28;20438;-65
2021/01/25 11:46:42;;;;;;;20.73;16.10;;;3.70;99.90;;;;;;5061661;28;20662;-65
2021/01/25 11:49:07;;;;;;;16.80;15.00;;;3.70;99.90;;;;;;5062318;28;20899;-65
2021/01/25 11:51:33;;;;;;;17.47;15.67;;;3.90;99.90;;;;;;5058748;28;20176;-65
2021/01/25 11:53:58;;;;;;;18.43;15.60;;;4.00;99.90;;;;;;5064906;28;20750;-65
2021/01/25 11:56:24;;;;;;;17.23;15.43;;;4.10;99.90;;;;;;5062218;28;20193;-65
2021/01/25 11:58:50;;;;;;;24.47;15.93;;;4.20;99.90;;;;;;5056085;28;20184;-65
2021/01/25 12:01:15;;;;;;;16.87;15.03;;;4.30;99.90;;;;;;5059245;28;20684;-64
2021/01/25 12:03:41;;;;;;;16.50;14.57;;;4.40;99.90;;;;;;5053902;28;20196;-65
2021/01/25 12:06:06;;;;;;;15.80;14.30;;;4.50;99.90;;;;;;5064449;28;20602;-65
2021/01/25 12:08:35;;;;;;;16.30;14.60;;;4.60;99.90;;;;;;5054368;28;20181;-65
2021/01/25 12:11:05;;;;;;;16.80;13.50;;;4.70;99.90;;;;;;5063782;28;20263;-65
2021/01/25 12:13:30;;;;;;;16.73;13.27;;;4.70;99.90;;;;;;5055476;28;20490;-65
2021/01/25 12:15:56;;;;;;;16.67;15.07;;;4.70;99.90;;;;;;5057666;28;20438;-65
2021/01/25 12:18:22;;;;;;;16.57;14.83;;;4.70;99.90;;;;;;5063792;28;20881;-65
2021/01/25 12:20:48;;;;;;;17.73;15.87;;;4.70;99.90;;;;;;5056554;28;20462;-65
2021/01/25 12:23:13;;;;;;;16.40;13.87;;;4.60;99.90;;;;;;5058403;28;20195;-65
2021/01/25 12:25:39;;;;;;;14.40;13.00;;;4.60;99.90;;;;;;5058759;28;20242;-65
2021/01/25 12:28:07;;;;;;;16.07;14.50;;;4.60;99.90;;;;;;5056253;28;20218;-65
2021/01/25 12:30:32;;;;;;;15.17;13.77;;;4.60;99.90;;;;;;5058741;28;20180;-65
2021/01/25 12:32:58;;;;;;;14.90;12.70;;;4.60;99.90;;;;;;5057470;28;20496;-65
2021/01/25 12:35:24;;;;;;;13.13;11.90;;;4.70;99.90;;;;;;5060341;28;20723;-65
2021/01/25 12:37:53;;;;;;;12.83;11.23;;;4.70;99.90;;;;;;5064993;28;20780;-64
2021/01/25 12:40:20;;;;;;;13.37;10.37;;;4.70;99.90;;;;;;5060307;28;20195;-64
2021/01/25 12:42:46;;;;;;;13.87;12.43;;;4.70;99.90;;;;;;5061128;28;20530;-64
2021/01/25 12:45:12;;;;;;;11.97;10.80;;;4.60;99.90;;;;;;5057791;28;20438;-64
2021/01/25 12:47:38;;;;;;;13.23;10.87;;;4.50;99.90;;;;;;5054531;28;20422;-64